Time;durP1;ratioP1;P1;durP2;ratioP2;P2;SDS_P1;SDS_P2;PMS_P1;PMS_P2;Temp;Humidity;BMP_temperature;BMP_pressure;BME280_temperature;BME280_humidity;BME280_pressure;Samples;Min_cycle;Max_cycle;Signal;HPM_P1;HPM_P2
2021/06/04 00:00:28;64240.00;0.21;111.81;0.00;0.00;0.62;;;;;21.70;1.10;;;;;;2276530;61;1756;-87
2021/06/04 00:02:56;28263.00;0.09;49.58;0.00;0.00;0.62;;;;;21.70;1.60;;;;;;2276406;61;1392;-87
2021/06/04 00:05:28;14247.00;0.05;25.31;0.00;0.00;0.62;;;;;21.50;1.50;;;;;;2276400;61;1084;-88
2021/06/04 00:07:54;98821.00;0.33;171.54;0.00;0.00;0.62;;;;;21.80;1.50;;;;;;2267826;61;930;-87
2021/06/04 00:10:27;176656.00;0.59;305.73;0.00;0.00;0.62;;;;;21.90;1.00;;;;;;2267680;61;1552;-88
2021/06/04 00:12:53;0.00;0.00;0.62;0.00;0.00;0.62;;;;;21.80;1.00;;;;;;2267798;61;1998;-87
2021/06/04 00:15:27;270939.00;0.90;467.96;38536.00;0.13;67.36;;;;;21.90;1.00;;;;;;2267691;61;1109;-88
2021/06/04 00:17:53;423385.00;1.41;730.01;109974.00;0.37;190.79;;;;;22.00;1.00;;;;;;2267762;61;1125;-87
2021/06/04 00:20:24;237582.00;0.79;410.59;12799.00;0.04;22.80;;;;;22.10;1.00;;;;;;2267476;61;1056;-88
2021/06/04 00:22:51;129122.00;0.43;223.82;0.00;0.00;0.62;;;;;22.00;1.00;;;;;;2267727;61;1391;-88
2021/06/04 00:25:17;195354.00;0.65;337.93;0.00;0.00;0.62;;;;;21.90;1.00;;;;;;2269556;61;1176;-88
2021/06/04 00:27:43;69704.00;0.23;121.25;0.00;0.00;0.62;;;;;21.90;1.00;;;;;;2276098;61;1148;-88
2021/06/04 00:30:11;152509.00;0.51;264.13;0.00;0.00;0.62;;;;;22.00;1.00;;;;;;2276137;61;1637;-88
2021/06/04 00:32:39;24138.00;0.08;42.44;0.00;0.00;0.62;;;;;22.10;1.00;;;;;;2275965;61;1410;-88
2021/06/04 00:35:08;27361.00;0.09;48.01;0.00;0.00;0.62;;;;;22.10;1.00;;;;;;2263338;61;2003;-87
2021/06/04 00:37:35;143329.00;0.48;248.31;0.00;0.00;0.62;;;;;22.00;1.00;;;;;;2263558;61;1014;-88
2021/06/04 00:40:03;136556.00;0.46;236.63;17052.00;0.06;30.16;;;;;21.90;1.00;;;;;;2263721;61;1157;-87
2021/06/04 00:42:33;16060.00;0.05;28.45;0.00;0.00;0.62;;;;;21.70;1.00;;;;;;2256761;61;1282;-88
2021/06/04 00:45:00;144744.00;0.48;250.75;0.00;0.00;0.62;;;;;21.60;1.00;;;;;;2263602;61;1245;-87
2021/06/04 00:47:27;29513.00;0.10;51.74;0.00;0.00;0.62;;;;;21.50;1.40;;;;;;2263942;61;1094;-86
2021/06/04 00:49:55;158291.00;0.53;274.09;0.00;0.00;0.62;;;;;21.10;1.20;;;;;;2263974;61;1035;-86
2021/06/04 00:52:26;27967.00;0.09;49.06;0.00;0.00;0.62;;;;;20.70;3.20;;;;;;2259097;61;1335;-86
2021/06/04 00:54:55;32845.00;0.11;57.51;0.00;0.00;0.62;;;;;20.30;4.70;;;;;;2275975;61;1931;-86
2021/06/04 00:57:23;321114.00;1.07;554.21;53759.00;0.18;93.69;;;;;19.90;4.90;;;;;;2276067;61;1102;-87
2021/06/04 00:59:49;508494.00;1.69;876.45;11347.00;0.04;20.28;;;;;19.80;6.00;;;;;;2265593;61;1141;-87
2021/06/04 01:02:19;139204.00;0.46;241.20;0.00;0.00;0.62;;;;;19.90;6.10;;;;;;2276371;61;1469;-86
2021/06/04 01:04:46;253883.00;0.85;438.63;45852.00;0.15;80.01;;;;;19.80;6.00;;;;;;2272544;61;1128;-87
2021/06/04 01:07:20;137445.00;0.46;238.17;0.00;0.00;0.62;;;;;19.60;7.10;;;;;;2266025;61;955;-88
2021/06/04 01:10:10;134974.00;0.45;233.91;0.00;0.00;0.62;;;;;19.60;7.60;;;;;;2276253;61;1162;-87
2021/06/04 01:12:56;17436.00;0.06;30.83;0.00;0.00;0.62;;;;;19.60;7.10;;;;;;2265667;61;1444;-87
2021/06/04 01:15:35;0.00;0.00;0.62;0.00;0.00;0.62;;;;;19.80;6.70;;;;;;2276295;61;1960;-87
2021/06/04 01:18:07;0.00;0.00;0.62;0.00;0.00;0.62;;;;;19.70;6.60;;;;;;2276041;61;1160;-87
2021/06/04 01:20:40;182326.00;0.61;315.50;0.00;0.00;0.62;;;;;19.60;7.20;;;;;;2265542;61;1162;-86
2021/06/04 01:23:49;88622.00;0.30;153.93;0.00;0.00;0.62;;;;;19.50;7.40;;;;;;2265653;61;1421;-86
2021/06/04 01:26:25;0.00;0.00;0.62;0.00;0.00;0.62;;;;;19.10;9.50;;;;;;2263069;61;1105;-86
2021/06/04 01:28:54;0.00;0.00;0.62;0.00;0.00;0.62;;;;;19.20;9.20;;;;;;2263461;61;1232;-87
2021/06/04 01:31:27;20249.00;0.07;35.70;0.00;0.00;0.62;;;;;19.50;7.70;;;;;;2263563;61;990;-86
2021/06/04 01:33:59;39025.00;0.13;68.20;0.00;0.00;0.62;;;;;19.60;6.00;;;;;;2260321;61;2007;-86
2021/06/04 01:36:30;0.00;0.00;0.62;0.00;0.00;0.62;;;;;19.90;6.10;;;;;;2263871;61;1002;-85
2021/06/04 01:39:00;57497.00;0.19;100.15;0.00;0.00;0.62;;;;;20.00;5.40;;;;;;2263587;61;1169;-87
2021/06/04 01:41:29;0.00;0.00;0.62;0.00;0.00;0.62;;;;;20.10;4.80;;;;;;2263389;61;1140;-86
2021/06/04 01:44:01;50948.00;0.17;88.83;0.00;0.00;0.62;;;;;20.30;3.40;;;;;;2261092;61;1392;-86
2021/06/04 01:46:32;0.00;0.00;0.62;0.00;0.00;0.62;;;;;20.50;3.10;;;;;;2265725;61;1184;-87
2021/06/04 01:49:04;115427.00;0.38;200.19;0.00;0.00;0.62;;;;;20.60;2.30;;;;;;2276152;61;1163;-86
2021/06/04 01:51:35;276395.00;0.92;477.34;36497.00;0.12;63.83;;;;;20.80;2.10;;;;;;2275926;61;1688;-87
2021/06/04 01:54:06;102479.00;0.34;177.85;0.00;0.00;0.62;;;;;20.90;1.40;;;;;;2267203;61;1919;-86
2021/06/04 01:56:38;179694.00;0.60;310.96;41186.00;0.14;71.94;;;;;20.90;1.20;;;;;;2267493;61;1176;-86
2021/06/04 01:59:09;19779.00;0.07;34.89;0.00;0.00;0.62;;;;;20.80;1.00;;;;;;2267390;61;1084;-86
2021/06/04 02:01:39;0.00;0.00;0.62;0.00;0.00;0.62;;;;;20.90;2.60;;;;;;2257300;61;1142;-87
2021/06/04 02:04:06;65205.00;0.22;113.47;0.00;0.00;0.62;;;;;21.00;2.00;;;;;;2267340;61;1375;-87
2021/06/04 02:06:34;48347.00;0.16;84.33;0.00;0.00;0.62;;;;;21.00;1.60;;;;;;2260623;61;1161;-87
2021/06/04 02:09:03;69793.00;0.23;121.40;0.00;0.00;0.62;;;;;21.10;1.40;;;;;;2259274;61;1157;-87
2021/06/04 02:11:32;50073.00;0.17;87.31;0.00;0.00;0.62;;;;;21.10;1.00;;;;;;2261473;61;1154;-86
2021/06/04 02:14:02;46755.00;0.16;81.57;0.00;0.00;0.62;;;;;20.90;1.00;;;;;;2266866;61;1997;-87
2021/06/04 02:16:54;7700.00;0.03;13.96;0.00;0.00;0.62;;;;;20.90;1.00;;;;;;2266842;61;1112;-87
2021/06/04 02:19:29;0.00;0.00;0.62;0.00;0.00;0.62;;;;;20.80;1.00;;;;;;2267104;61;1085;-87
2021/06/04 02:22:04;44237.00;0.15;77.22;0.00;0.00;0.62;;;;;20.50;1.00;;;;;;2267248;61;1088;-87
2021/06/04 02:24:42;48705.00;0.16;84.95;0.00;0.00;0.62;;;;;20.40;1.60;;;;;;2259207;61;1433;-87
2021/06/04 02:27:15;96771.00;0.32;168.00;17969.00;0.06;31.75;;;;;20.50;2.50;;;;;;2263455;61;1115;-87
2021/06/04 02:29:49;30367.00;0.10;53.22;0.00;0.00;0.62;;;;;20.60;2.40;;;;;;2263777;61;1239;-87
2021/06/04 02:32:21;0.00;0.00;0.62;0.00;0.00;0.62;;;;;20.70;1.60;;;;;;2267166;61;1418;-87
2021/06/04 02:34:54;58327.00;0.19;101.58;0.00;0.00;0.62;;;;;20.60;2.80;;;;;;2266978;61;2014;-86
2021/06/04 02:37:28;108390.00;0.36;188.05;0.00;0.00;0.62;;;;;20.70;1.70;;;;;;2263656;61;1097;-86
2021/06/04 02:40:00;158969.00;0.53;275.26;14907.00;0.05;26.45;;;;;20.50;1.00;;;;;;2263693;61;974;-86
2021/06/04 02:42:32;90805.00;0.30;157.70;0.00;0.00;0.62;;;;;20.10;2.40;;;;;;2271030;61;1305;-86
2021/06/04 02:45:10;51819.00;0.17;90.33;0.00;0.00;0.62;;;;;20.00;3.20;;;;;;2269015;61;1114;-86
2021/06/04 02:47:42;27107.00;0.09;47.58;0.00;0.00;0.62;;;;;20.00;3.30;;;;;;2275895;61;1042;-87
2021/06/04 02:50:14;15284.00;0.05;27.10;0.00;0.00;0.62;;;;;20.20;2.70;;;;;;2275980;61;1133;-87
2021/06/04 02:52:44;0.00;0.00;0.62;0.00;0.00;0.62;;;;;20.30;2.50;;;;;;2264957;61;1347;-87
2021/06/04 02:55:14;0.00;0.00;0.62;0.00;0.00;0.62;;;;;20.30;2.40;;;;;;2265755;61;1928;-87
2021/06/04 02:57:41;0.00;0.00;0.62;0.00;0.00;0.62;;;;;20.20;2.70;;;;;;2273050;61;1026;-87
2021/06/04 03:00:18;0.00;0.00;0.62;0.00;0.00;0.62;;;;;20.30;2.00;;;;;;2276670;61;1148;-87
2021/06/04 03:02:44;0.00;0.00;0.62;0.00;0.00;0.62;;;;;20.30;2.60;;;;;;2276469;61;1441;-86
2021/06/04 03:05:17;0.00;0.00;0.62;0.00;0.00;0.62;;;;;20.40;2.20;;;;;;2276500;61;1215;-87
2021/06/04 03:07:44;0.00;0.00;0.62;0.00;0.00;0.62;;;;;20.20;1.70;;;;;;2276485;61;1167;-87
2021/06/04 03:10:16;0.00;0.00;0.62;0.00;0.00;0.62;;;;;20.10;2.60;;;;;;2276676;61;1066;-87
2021/06/04 03:12:46;11954.00;0.04;21.33;0.00;0.00;0.62;;;;;19.90;3.10;;;;;;2276032;61;1331;-86
2021/06/04 03:15:24;21507.00;0.07;37.88;0.00;0.00;0.62;;;;;19.70;4.10;;;;;;2276082;61;1994;-87
2021/06/04 03:17:51;0.00;0.00;0.62;0.00;0.00;0.62;;;;;19.80;3.50;;;;;;2275736;61;1281;-87
2021/06/04 03:20:24;10714.00;0.04;19.19;0.00;0.00;0.62;;;;;19.90;3.40;;;;;;2271925;61;1175;-86
2021/06/04 03:22:51;0.00;0.00;0.62;0.00;0.00;0.62;;;;;19.90;2.10;;;;;;2268844;61;1414;-87
2021/06/04 03:25:22;0.00;0.00;0.62;0.00;0.00;0.62;;;;;19.80;3.50;;;;;;2262856;61;1117;-86
2021/06/04 03:27:49;0.00;0.00;0.62;0.00;0.00;0.62;;;;;19.60;4.10;;;;;;2259705;61;1263;-87
2021/06/04 03:30:21;42080.00;0.14;73.49;0.00;0.00;0.62;;;;;19.70;3.30;;;;;;2263254;61;1075;-86
2021/06/04 03:32:47;0.00;0.00;0.62;0.00;0.00;0.62;;;;;19.80;3.00;;;;;;2262932;61;1354;-87
2021/06/04 03:35:15;177445.00;0.59;307.09;36628.00;0.12;64.05;;;;;19.80;3.40;;;;;;2259575;61;1931;-87
2021/06/04 03:37:42;77047.00;0.26;133.94;0.00;0.00;0.62;;;;;20.00;3.20;;;;;;2254931;61;1220;-86
2021/06/04 03:40:12;55835.00;0.19;97.28;0.00;0.00;0.62;;;;;19.90;3.30;;;;;;2252146;61;1110;-87
2021/06/04 03:42:39;0.00;0.00;0.62;0.00;0.00;0.62;;;;;19.90;2.20;;;;;;2254582;61;1418;-88
2021/06/04 03:45:09;0.00;0.00;0.62;0.00;0.00;0.62;;;;;20.10;2.90;;;;;;2262941;61;1132;-87
2021/06/04 03:47:37;89339.00;0.30;155.17;0.00;0.00;0.62;;;;;20.20;2.00;;;;;;2262515;61;1284;-86
2021/06/04 03:50:04;0.00;0.00;0.62;0.00;0.00;0.62;;;;;20.20;1.80;;;;;;2262683;61;1141;-86
2021/06/04 03:52:31;37953.00;0.13;66.35;0.00;0.00;0.62;;;;;20.10;2.60;;;;;;2262451;61;1337;-86
2021/06/04 03:54:59;0.00;0.00;0.62;0.00;0.00;0.62;;;;;20.10;2.20;;;;;;2262993;61;2013;-86
2021/06/04 03:57:28;74412.00;0.25;129.38;0.00;0.00;0.62;;;;;20.30;1.70;;;;;;2262885;61;1085;-86
2021/06/04 03:59:55;0.00;0.00;0.62;0.00;0.00;0.62;;;;;20.40;1.20;;;;;;2267815;61;1057;-86
2021/06/04 04:02:25;182436.00;0.61;315.68;51015.00;0.17;88.94;;;;;20.50;1.60;;;;;;2274630;61;1273;-86
2021/06/04 04:04:57;439530.00;1.47;757.77;70473.00;0.23;122.58;;;;;20.80;1.00;;;;;;2262451;61;998;-86
2021/06/04 04:07:24;0.00;0.00;0.62;0.00;0.00;0.62;;;;;20.60;1.00;;;;;;2252380;61;1071;-86
2021/06/04 04:15:21;146120.00;0.49;253.12;0.00;0.00;0.62;;;;;21.00;1.00;;;;;;2279126;61;2063;-86
2021/06/04 04:17:51;193213.00;0.64;334.24;31679.00;0.11;55.49;;;;;21.00;1.00;;;;;;2276240;61;1391;-86
2021/06/04 04:20:23;216184.00;0.72;373.78;16756.00;0.06;29.65;;;;;21.10;1.00;;;;;;2264675;61;1239;-86
2021/06/04 04:22:49;49855.00;0.17;86.94;0.00;0.00;0.62;;;;;21.30;1.00;;;;;;2267707;61;1429;-86
2021/06/04 04:25:16;43557.00;0.15;76.04;0.00;0.00;0.62;;;;;21.40;1.00;;;;;;2275062;61;1132;-87
2021/06/04 04:27:44;332660.00;1.11;574.06;44319.00;0.15;77.36;;;;;21.60;1.00;;;;;;2275298;61;1135;-88
2021/06/04 04:30:15;21998.00;0.07;38.73;0.00;0.00;0.62;;;;;21.80;1.00;;;;;;2275179;61;1124;-88
2021/06/04 04:32:41;135338.00;0.45;234.53;74.00;0.00;0.75;;;;;21.80;1.00;;;;;;2264877;61;1416;-85
2021/06/04 04:35:11;210884.00;0.70;364.66;0.00;0.00;0.62;;;;;21.50;1.00;;;;;;2264965;61;2008;-86
2021/06/04 04:37:39;0.00;0.00;0.62;0.00;0.00;0.62;;;;;21.40;1.00;;;;;;2271797;61;1068;-87
2021/06/04 04:40:07;133571.00;0.45;231.49;0.00;0.00;0.62;;;;;21.40;1.00;;;;;;2275934;61;1175;-87
2021/06/04 04:42:34;0.00;0.00;0.62;0.00;0.00;0.62;;;;;21.20;1.00;;;;;;2268546;61;1415;-87
2021/06/04 04:45:00;21212.00;0.07;37.37;0.00;0.00;0.62;;;;;20.90;1.00;;;;;;2262937;61;1125;-87
2021/06/04 04:47:27;0.00;0.00;0.62;0.00;0.00;0.62;;;;;20.90;1.00;;;;;;2256373;61;1207;-86
2021/06/04 04:49:53;0.00;0.00;0.62;0.00;0.00;0.62;;;;;21.10;1.00;;;;;;2256494;61;1213;-87
2021/06/04 04:52:21;58062.00;0.19;101.13;0.00;0.00;0.62;;;;;21.00;1.10;;;;;;2262919;61;1328;-87
2021/06/04 04:54:51;34269.00;0.11;59.97;0.00;0.00;0.62;;;;;21.10;1.10;;;;;;2262562;61;2005;-87
2021/06/04 04:57:19;0.00;0.00;0.62;0.00;0.00;0.62;;;;;20.80;1.00;;;;;;2256683;61;1247;-86
2021/06/04 04:59:46;0.00;0.00;0.62;0.00;0.00;0.62;;;;;20.80;1.50;;;;;;2263350;61;1171;-87
2021/06/04 05:02:14;64908.00;0.22;112.96;0.00;0.00;0.62;;;;;20.90;1.00;;;;;;2261746;61;1418;-87
2021/06/04 05:04:40;121416.00;0.40;210.52;0.00;0.00;0.62;;;;;21.00;1.10;;;;;;2269119;61;1133;-87
2021/06/04 05:07:07;23009.00;0.08;40.48;0.00;0.00;0.62;;;;;21.30;1.00;;;;;;2269324;61;975;-87
2021/06/04 05:09:34;45043.00;0.15;78.61;0.00;0.00;0.62;;;;;21.60;1.00;;;;;;2266109;61;981;-88
2021/06/04 05:12:03;80006.00;0.27;139.05;0.00;0.00;0.62;;;;;21.50;1.00;;;;;;2276448;61;1038;-87
2021/06/04 05:14:30;39573.00;0.13;69.15;0.00;0.00;0.62;;;;;21.40;1.00;;;;;;2276082;61;2008;-87
2021/06/04 05:16:56;0.00;0.00;0.62;0.00;0.00;0.62;;;;;21.00;1.20;;;;;;2263706;61;952;-88
2021/06/04 05:19:23;43858.00;0.15;76.56;0.00;0.00;0.62;;;;;20.90;1.00;;;;;;2263633;61;1098;-87
2021/06/04 05:21:49;181911.00;0.61;314.78;19158.00;0.06;33.81;;;;;20.70;2.40;;;;;;2260460;61;982;-86
2021/06/04 05:24:16;115093.00;0.38;199.62;0.00;0.00;0.62;;;;;20.70;2.40;;;;;;2255711;61;1439;-87
2021/06/04 05:26:43;0.00;0.00;0.62;0.00;0.00;0.62;;;;;20.80;2.70;;;;;;2255795;61;1127;-87
2021/06/04 05:29:10;0.00;0.00;0.62;0.00;0.00;0.62;;;;;21.10;2.20;;;;;;2252435;61;1017;-87
2021/06/04 05:31:38;0.00;0.00;0.62;0.00;0.00;0.62;;;;;21.00;2.80;;;;;;2249140;61;1114;-89
2021/06/04 05:34:05;97513.00;0.33;169.28;22416.00;0.07;39.45;;;;;21.40;2.10;;;;;;2253371;61;1906;-88
2021/06/04 05:36:42;130313.00;0.43;225.87;25427.00;0.08;44.67;;;;;21.80;1.00;;;;;;2263703;61;1063;-87
2021/06/04 05:39:12;255182.00;0.85;440.86;0.00;0.00;0.62;;;;;21.60;2.20;;;;;;2263831;61;911;-87
2021/06/04 05:41:41;0.00;0.00;0.62;0.00;0.00;0.62;;;;;21.60;2.70;;;;;;2266589;61;1075;-87
2021/06/04 05:44:19;0.00;0.00;0.62;0.00;0.00;0.62;;;;;22.70;1.60;;;;;;2276341;61;1449;-89
2021/06/04 05:47:06;191403.00;0.64;331.12;52509.00;0.18;91.53;;;;;24.70;1.00;;;;;;2275738;61;1128;-87
2021/06/04 05:49:34;6503.00;0.02;11.89;0.00;0.00;0.62;;;;;26.10;1.00;;;;;;2276094;61;1107;-89
2021/06/04 05:52:08;117548696.00;391.83;65793576.00;0.00;0.00;0.62;;;;;27.50;1.00;;;;;;2272581;61;1064;-88
2021/06/04 05:54:35;34516.00;0.12;60.40;0.00;0.00;0.62;;;;;28.90;1.00;;;;;;2265879;61;2010;-88
2021/06/04 05:57:02;0.00;0.00;0.62;0.00;0.00;0.62;;;;;29.90;1.00;;;;;;2275975;61;1059;-89
2021/06/04 05:59:28;42558.00;0.14;74.31;0.00;0.00;0.62;;;;;31.10;1.00;;;;;;2276221;61;1060;-88
2021/06/04 06:01:55;115176.00;0.38;199.76;0.00;0.00;0.62;;;;;31.50;1.00;;;;;;2275919;61;1137;-88
2021/06/04 06:04:23;43324.00;0.14;75.64;0.00;0.00;0.62;;;;;32.70;1.00;;;;;;2276350;61;1417;-87
2021/06/04 06:06:51;0.00;0.00;0.62;0.00;0.00;0.62;;;;;34.00;1.00;;;;;;2276351;61;1094;-88
2021/06/04 06:09:18;50988.00;0.17;88.89;0.00;0.00;0.62;;;;;34.30;1.00;;;;;;2275691;61;1019;-88
2021/06/04 06:11:44;0.00;0.00;0.62;0.00;0.00;0.62;;;;;33.50;1.00;;;;;;2269280;61;1025;-88
2021/06/04 06:14:11;0.00;0.00;0.62;0.00;0.00;0.62;;;;;33.50;1.00;;;;;;2265960;61;1915;-87
2021/06/04 06:16:39;0.00;0.00;0.62;0.00;0.00;0.62;;;;;34.20;1.00;;;;;;2276384;61;988;-88
2021/06/04 06:19:06;165878.00;0.55;287.17;0.00;0.00;0.62;;;;;34.50;1.00;;;;;;2265882;61;1060;-89
2021/06/04 06:21:35;69646.00;0.23;121.15;0.00;0.00;0.62;;;;;34.70;1.00;;;;;;2269201;61;1058;-88
2021/06/04 06:24:03;47093.00;0.16;82.16;0.00;0.00;0.62;;;;;34.90;1.00;;;;;;2276157;61;1696;-89
2021/06/04 06:26:30;0.00;0.00;0.62;0.00;0.00;0.62;;;;;35.30;1.00;;;;;;2263559;61;1000;-88
2021/06/04 06:28:59;372.00;0.00;1.26;0.00;0.00;0.62;;;;;35.20;1.00;;;;;;2260397;61;993;-90
2021/06/04 06:31:28;191849.00;0.64;331.89;0.00;0.00;0.62;;;;;34.90;1.00;;;;;;2264092;61;1030;-88
2021/06/04 06:33:54;0.00;0.00;0.62;0.00;0.00;0.62;;;;;36.00;1.00;;;;;;2257650;61;1915;-87
2021/06/04 06:36:26;0.00;0.00;0.62;0.00;0.00;0.62;;;;;35.30;1.00;;;;;;2252255;61;1071;-88
2021/06/04 06:38:54;44125.00;0.15;77.02;0.00;0.00;0.62;;;;;35.20;1.00;;;;;;2256226;61;1035;-88
2021/06/04 06:41:22;0.00;0.00;0.62;0.00;0.00;0.62;;;;;35.50;1.00;;;;;;2253042;61;1003;-88
2021/06/04 06:43:51;0.00;0.00;0.62;0.00;0.00;0.62;;;;;35.70;1.00;;;;;;2253795;61;1377;-89
2021/06/04 06:46:19;432808.00;1.44;746.21;145898.00;0.49;252.74;;;;;36.50;1.00;;;;;;2260266;61;1042;-90
2021/06/04 06:48:46;168519.00;0.56;291.72;67167.00;0.22;116.86;;;;;36.80;1.00;;;;;;2260280;61;1052;-90
2021/06/04 06:51:12;226496.00;0.75;391.52;62137.00;0.21;108.17;;;;;37.40;1.00;;;;;;2256929;61;1036;-90
2021/06/04 06:53:41;212521.00;0.71;367.47;61277.00;0.20;106.68;;;;;37.70;1.00;;;;;;2260146;61;1840;-90
2021/06/04 06:56:13;204715.00;0.68;354.04;53221.00;0.18;92.76;;;;;37.50;1.00;;;;;;2260903;61;1087;-89
2021/06/04 06:58:40;181632.00;0.61;314.30;60072.00;0.20;104.60;;;;;37.40;1.00;;;;;;2264216;61;1019;-89
2021/06/04 07:01:08;478153.00;1.59;824.22;151798.00;0.51;262.91;;;;;36.60;1.00;;;;;;2266149;61;1064;-88
2021/06/04 07:03:37;225892.00;0.75;390.48;60868.00;0.20;105.98;;;;;36.10;1.00;;;;;;2276597;61;1312;-89
2021/06/04 07:06:09;177292.00;0.59;306.83;49643.00;0.17;86.57;;;;;36.10;1.00;;;;;;2276874;61;1036;-88
2021/06/04 07:08:35;301903.00;1.01;521.19;58266.00;0.19;101.48;;;;;36.20;1.00;;;;;;2272959;61;1067;-87
2021/06/04 07:11:03;300153.00;1.00;518.18;110670.00;0.37;191.99;;;;;35.60;1.00;;;;;;2276751;61;1000;-87
2021/06/04 07:13:31;180951.00;0.60;313.13;64101.00;0.21;111.57;;;;;34.80;1.00;;;;;;2266331;61;1419;-87
2021/06/04 07:16:01;165758.00;0.55;286.96;57376.00;0.19;99.94;;;;;33.50;1.00;;;;;;2276475;61;1936;-86
2021/06/04 07:18:28;187631.00;0.63;324.63;59064.00;0.20;102.86;;;;;34.00;1.00;;;;;;2275352;61;1041;-86
2021/06/04 07:20:56;234345.00;0.78;405.02;68620.00;0.23;119.38;;;;;34.40;1.00;;;;;;2275872;61;1135;-88
2021/06/04 07:23:24;316007.00;1.05;545.43;142397.00;0.47;246.70;;;;;34.50;1.00;;;;;;2276659;61;1313;-88
2021/06/04 07:25:51;165556.00;0.55;286.61;58482.00;0.19;101.85;;;;;34.80;1.00;;;;;;2264180;61;1102;-88
2021/06/04 07:28:20;170826.00;0.57;295.69;67041.00;0.22;116.65;;;;;35.40;1.00;;;;;;2264188;61;1053;-89
2021/06/04 07:30:50;246779.00;0.82;426.41;58148.00;0.19;101.28;;;;;36.50;1.00;;;;;;2264208;61;1118;-90
2021/06/04 07:33:20;336029.00;1.12;579.85;99378.00;0.33;172.50;;;;;37.00;1.00;;;;;;2257417;61;1472;-91
2021/06/04 07:35:48;318556.00;1.06;549.82;72811.00;0.24;126.62;;;;;37.30;1.00;;;;;;2264203;61;1923;-89
2021/06/04 07:38:15;195964.00;0.65;338.98;63136.00;0.21;109.90;;;;;37.60;1.00;;;;;;2264157;61;991;-90
2021/06/04 07:40:42;163928.00;0.55;283.81;57829.00;0.19;100.72;;;;;37.10;1.00;;;;;;2264132;61;1095;-89
2021/06/04 07:43:14;165728.00;0.55;286.91;62446.00;0.21;108.71;;;;;37.30;1.00;;;;;;2254312;61;1420;-90
2021/06/04 07:45:43;218338.00;0.73;377.48;61263.00;0.20;106.66;;;;;37.10;1.00;;;;;;2264094;61;1030;-88
2021/06/04 07:48:13;221034.00;0.74;382.12;54765.00;0.18;95.43;;;;;37.10;1.00;;;;;;2257545;61;986;-90
2021/06/04 07:50:41;254894.00;0.85;440.37;52010.00;0.17;90.66;;;;;37.50;1.00;;;;;;2255749;61;972;-90
2021/06/04 07:53:08;309557.00;1.03;534.35;63713.00;0.21;110.90;;;;;37.20;1.00;;;;;;2256094;61;1306;-89
2021/06/04 07:55:34;182902.00;0.61;316.49;51932.00;0.17;90.53;;;;;37.50;1.00;;;;;;2255938;61;2007;-90
2021/06/04 07:58:01;171423.00;0.57;296.72;56532.00;0.19;98.48;;;;;37.10;1.00;;;;;;2256054;61;1044;-89
2021/06/04 08:00:30;281912.00;0.94;486.82;62882.00;0.21;109.46;;;;;37.20;1.00;;;;;;2257513;61;1038;-90
2021/06/04 08:02:59;248430.00;0.83;429.25;47417.00;0.16;82.72;;;;;36.90;1.00;;;;;;2264041;61;1403;-90
2021/06/04 08:05:27;201106.00;0.67;347.83;56017.00;0.19;97.59;;;;;37.30;1.00;;;;;;2259892;61;1062;-92
2021/06/04 08:07:54;329818.00;1.10;569.17;93115.00;0.31;161.69;;;;;38.00;1.00;;;;;;2261912;61;997;-92
2021/06/04 08:10:21;169634.00;0.57;293.64;60151.00;0.20;104.74;;;;;37.40;1.00;;;;;;2263951;61;1030;-91
2021/06/04 08:12:48;251308.00;0.84;434.20;60327.00;0.20;105.04;;;;;37.70;1.00;;;;;;2263960;61;1452;-91
2021/06/04 08:15:27;244093.00;0.81;421.79;60052.00;0.20;104.57;;;;;37.70;1.00;;;;;;2254076;61;1912;-89
2021/06/04 08:17:54;331316.00;1.10;571.75;114597.00;0.38;198.76;;;;;36.00;1.00;;;;;;2264102;61;1049;-88
2021/06/04 08:20:24;284111.00;0.95;490.61;65269.00;0.22;113.58;;;;;35.30;1.00;;;;;;2257390;61;1051;-88
2021/06/04 08:22:55;511272.00;1.70;881.23;125981.00;0.42;218.40;;;;;35.00;1.00;;;;;;2254933;61;1352;-86
2021/06/04 11:11:22;444838.00;1.48;766.90;51315.00;0.17;89.46;;;;;27.70;1.00;;;;;;2278694;61;1230;-89
2021/06/04 11:14:06;471313.00;1.57;812.45;18965.00;0.06;33.48;;;;;27.40;1.00;;;;;;2276673;61;1634;-88
2021/06/04 11:16:38;153713.00;0.51;266.21;0.00;0.00;0.62;;;;;27.40;1.00;;;;;;2272552;61;1099;-86
2021/06/04 11:19:12;338998.00;1.13;584.95;118003.00;0.39;204.64;;;;;27.50;1.00;;;;;;2272713;61;1132;-87
2021/06/04 11:21:44;478483.00;1.59;824.79;78884.00;0.26;137.11;;;;;27.50;1.00;;;;;;2272662;61;1650;-87
2021/06/04 11:24:17;353755.00;1.18;610.32;68809.00;0.23;119.70;;;;;27.40;1.00;;;;;;2272587;61;1473;-86
2021/06/04 11:26:49;178337.00;0.59;308.63;66805.00;0.22;116.24;;;;;27.10;1.00;;;;;;2272749;61;994;-86
2021/06/04 11:29:18;290273.00;0.97;501.20;68391.00;0.23;118.98;;;;;27.30;1.00;;;;;;2272727;61;1095;-88
2021/06/04 11:31:58;388621.00;1.30;670.24;62558.00;0.21;108.90;;;;;27.20;1.00;;;;;;2272724;61;996;-88
2021/06/04 11:34:44;221571.00;0.74;383.05;0.00;0.00;0.62;;;;;26.70;1.00;;;;;;2272535;61;2002;-88
2021/06/04 11:37:14;91534.00;0.31;158.96;0.00;0.00;0.62;;;;;26.60;1.00;;;;;;2272728;61;947;-89
2021/06/04 11:39:45;242500.00;0.81;419.05;76597.00;0.26;133.16;;;;;26.50;1.00;;;;;;2265607;61;1030;-87
2021/06/04 11:42:18;254886.00;0.85;440.35;0.00;0.00;0.62;;;;;26.20;1.00;;;;;;2272678;61;1546;-88
2021/06/04 11:44:48;163687.00;0.55;283.39;0.00;0.00;0.62;;;;;26.40;1.00;;;;;;2272669;61;1439;-87
2021/06/04 11:47:31;375341.00;1.25;647.42;79237.00;0.26;137.72;;;;;26.40;1.00;;;;;;2272630;61;1594;-88
2021/06/04 11:50:12;36219.00;0.12;63.35;0.00;0.00;0.62;;;;;26.50;1.00;;;;;;2272664;61;1115;-87
2021/06/04 11:52:42;31747.00;0.11;55.61;0.00;0.00;0.62;;;;;26.30;1.00;;;;;;2272656;61;1298;-86
2021/06/04 11:55:13;56238.00;0.19;97.97;0.00;0.00;0.62;;;;;26.20;1.00;;;;;;2272610;61;1919;-88
2021/06/04 11:57:50;259824.00;0.87;448.85;67280.00;0.22;117.06;;;;;26.30;1.00;;;;;;2272631;61;1049;-88
2021/06/04 12:00:46;332118.00;1.11;573.13;71489.00;0.24;124.33;;;;;26.50;1.00;;;;;;2272637;61;1083;-87
2021/06/04 12:03:28;267686.00;0.89;462.37;72960.00;0.24;126.88;;;;;26.40;1.00;;;;;;2272586;61;1103;-87
2021/06/04 12:05:58;247038.00;0.82;426.86;68834.00;0.23;119.75;;;;;26.50;1.00;;;;;;2272496;61;1471;-87
2021/06/04 12:08:53;317723.00;1.06;548.38;59269.00;0.20;103.21;;;;;26.60;1.00;;;;;;2272651;61;961;-87
2021/06/04 12:11:33;460656.00;1.54;794.11;65944.00;0.22;114.75;;;;;26.90;1.00;;;;;;2272633;61;1595;-87
2021/06/04 12:14:19;246679.00;0.82;426.24;60455.00;0.20;105.26;;;;;27.00;1.00;;;;;;2272659;61;1088;-89
2021/06/04 12:17:25;84488.00;0.28;146.79;0.00;0.00;0.62;;;;;27.30;1.00;;;;;;2272564;61;1599;-87
2021/06/04 12:20:40;551681.00;1.84;950.86;101016.00;0.34;175.33;;;;;27.70;1.00;;;;;;2272490;61;1721;-89
2021/06/04 12:23:30;292799.00;0.98;505.54;47449.00;0.16;82.77;;;;;27.80;1.00;;;;;;2272616;61;1032;-89
2021/06/04 12:26:07;196054.00;0.65;339.13;0.00;0.00;0.62;;;;;28.30;1.00;;;;;;2272547;61;1380;-89
2021/06/04 12:28:47;38448.00;0.13;67.20;0.00;0.00;0.62;;;;;28.50;1.00;;;;;;2272242;61;1087;-90
2021/06/04 12:31:48;69944.00;0.23;121.66;0.00;0.00;0.62;;;;;28.50;1.00;;;;;;2272540;61;1083;-90
2021/06/04 12:34:56;180848.00;0.60;312.95;0.00;0.00;0.62;;;;;28.60;1.00;;;;;;2272523;61;1320;-90
2021/06/04 12:37:33;652600.00;2.18;1125.13;133806.00;0.45;231.89;;;;;29.00;1.00;;;;;;2272396;61;1546;-88
2021/06/04 12:40:25;20879.00;0.07;36.79;0.00;0.00;0.62;;;;;29.30;1.00;;;;;;2272639;61;940;-89
2021/06/04 12:43:19;46831.00;0.16;81.71;0.00;0.00;0.62;;;;;29.50;1.00;;;;;;2272461;61;1102;-89
2021/06/04 12:48:59;223400.00;0.74;386.19;68899.00;0.23;119.86;;;;;29.30;1.00;;;;;;2264602;61;1126;-89
2021/06/04 12:51:28;141167.00;0.47;244.58;0.00;0.00;0.62;;;;;29.70;1.00;;;;;;2272525;61;997;-91
2021/06/04 12:57:01;100762.00;0.34;174.89;0.00;0.00;0.62;;;;;29.90;1.00;;;;;;2271993;61;1025;-90
2021/06/04 12:59:32;208492.00;0.69;360.54;0.00;0.00;0.62;;;;;30.10;1.00;;;;;;2272401;61;1106;-89
2021/06/04 13:02:06;48404.00;0.16;84.43;0.00;0.00;0.62;;;;;30.20;1.00;;;;;;2272408;61;1816;-89
2021/06/04 13:05:08;133648.00;0.45;231.62;0.00;0.00;0.62;;;;;30.30;1.00;;;;;;2272370;61;1456;-89
2021/06/04 13:07:56;124460.00;0.41;215.78;0.00;0.00;0.62;;;;;30.10;1.00;;;;;;2263993;61;1683;-91
2021/06/04 13:10:59;314820.00;1.05;543.39;46114.00;0.15;80.47;;;;;30.20;1.00;;;;;;2263853;61;1053;-91
2021/06/04 13:13:49;;;;;;;;;;;;;;;;;;;;;
2021/06/04 13:16:21;461378.00;1.54;795.36;66838.00;0.22;116.30;;;;;30.30;1.00;;;;;;2263796;61;1920;-91
2021/06/04 13:18:53;337237.00;1.12;581.92;68733.00;0.23;119.57;;;;;30.20;1.00;;;;;;2263890;61;1785;-91